createdAt,value
2023-04-14T00:00:53.403Z,96193.06
2023-04-14T00:03:21.785Z,96191.81
2023-04-14T00:05:50.327Z,96183.41
2023-04-14T00:08:18.673Z,96175.53
2023-04-14T00:10:46.963Z,96174.88
2023-04-14T00:13:15.281Z,96190.59
2023-04-14T00:15:43.586Z,96184.91
2023-04-14T00:18:13.152Z,96180.97
2023-04-14T00:20:41.602Z,96197.84
2023-04-14T00:23:10.193Z,96185.88
2023-04-14T00:25:38.425Z,96195.22
2023-04-14T00:28:06.597Z,96197.94
2023-04-14T00:30:34.667Z,96199.63
2023-04-14T00:33:03.730Z,96204.97
2023-04-14T00:35:34.519Z,96194.56
2023-04-14T00:38:02.714Z,96210.03
2023-04-14T00:40:31.661Z,96201.03
2023-04-14T00:43:00.122Z,96220.06
2023-04-14T00:45:28.562Z,96203.88
2023-04-14T00:47:57.458Z,96195.88
2023-04-14T00:50:26.075Z,96202.53
2023-04-14T00:52:56.161Z,96197.84
2023-04-14T00:55:24.360Z,96177.78
2023-04-14T00:57:52.671Z,96161.50
2023-04-14T01:00:21.790Z,96153.63
2023-04-14T01:02:50.167Z,96148.00
2023-04-14T01:05:20.586Z,96142.00
2023-04-14T01:07:50.768Z,96143.38
2023-04-14T01:10:20.694Z,96143.03
2023-04-14T01:13:17.834Z,96139.81
2023-04-14T01:15:53.851Z,96122.25
2023-04-14T01:18:33.393Z,96143.31
2023-04-14T01:21:06.940Z,96128.59
2023-04-14T01:23:40.484Z,96124.06
2023-04-14T01:26:32.358Z,96110.59
2023-04-14T01:29:44.636Z,96107.69
2023-04-14T01:32:23.194Z,96097.19
2023-04-14T01:34:55.152Z,96100.22
2023-04-14T01:37:31.437Z,96101.31
2023-04-14T01:40:05.782Z,96109.03
2023-04-14T01:42:37.797Z,96123.56
2023-04-14T01:45:10.972Z,96116.69
2023-04-14T01:47:43.999Z,96113.22
2023-04-14T01:50:13.488Z,96108.19
2023-04-14T01:52:44.597Z,96113.78
2023-04-14T01:55:14.081Z,96097.25
2023-04-14T01:57:44.698Z,96100.38
2023-04-14T02:00:14.748Z,96086.06
2023-04-14T02:02:46.797Z,96089.53
2023-04-14T02:05:16.994Z,96088.06
2023-04-14T02:07:48.364Z,96075.38
2023-04-14T02:10:19.349Z,96078.47
2023-04-14T02:12:49.069Z,96076.78
2023-04-14T02:15:20.002Z,96070.88
2023-04-14T02:17:51.831Z,96071.84
2023-04-14T02:20:21.972Z,96066.69
2023-04-14T02:22:50.439Z,96069.84
2023-04-14T02:25:18.815Z,96069.44
2023-04-14T02:27:51.188Z,96070.94
2023-04-14T02:30:25.570Z,96057.25
2023-04-14T02:33:03.131Z,96068.16
2023-04-14T02:35:38.147Z,96072.28
2023-04-14T02:38:11.562Z,96058.22
2023-04-14T02:40:43.178Z,96069.34
2023-04-14T02:43:19.968Z,96057.63
2023-04-14T02:45:51.154Z,96054.91
2023-04-14T02:48:25.142Z,96046.69
2023-04-14T02:50:56.063Z,96057.25
2023-04-14T02:53:28.332Z,96044.00
2023-04-14T02:56:06.813Z,96041.63
2023-04-14T02:58:38.959Z,96052.59
2023-04-14T03:01:07.673Z,96040.13
2023-04-14T03:03:38.901Z,96035.13
2023-04-14T03:06:10.700Z,96045.19
2023-04-14T03:08:41.333Z,96056.44
2023-04-14T03:11:10.511Z,96052.88
2023-04-14T03:13:41.288Z,96042.66
2023-04-14T03:16:11.696Z,96035.97
2023-04-14T03:18:42.997Z,96035.09
2023-04-14T03:21:11.622Z,96027.97
2023-04-14T03:23:41.200Z,96047.47
2023-04-14T03:26:13.486Z,96043.47
2023-04-14T03:28:43.676Z,96040.78
2023-04-14T03:31:16.617Z,96038.25
2023-04-14T03:33:57.450Z,96047.81
2023-04-14T03:36:33.244Z,96018.25
2023-04-14T03:39:03.560Z,96012.66
2023-04-14T03:41:37.991Z,96014.28
2023-04-14T03:44:15.867Z,96010.28
2023-04-14T03:46:49.313Z,95998.66
2023-04-14T03:49:21.233Z,96007.03
2023-04-14T03:51:53.357Z,96026.69
2023-04-14T03:54:24.146Z,96032.78
2023-04-14T03:56:57.040Z,96016.78
2023-04-14T03:59:28.789Z,96015.03
2023-04-14T04:01:58.549Z,96018.06
2023-04-14T04:04:28.935Z,96001.66
2023-04-14T04:07:00.189Z,96003.31
2023-04-14T04:09:30.052Z,95992.63
2023-04-14T04:12:00.321Z,95995.72
2023-04-14T04:14:31.256Z,95994.47
2023-04-14T04:17:03.628Z,95992.00
2023-04-14T04:19:35.319Z,96001.47
2023-04-14T04:22:05.626Z,96003.34
2023-04-14T04:24:40.381Z,95995.19
2023-04-14T04:27:24.741Z,95991.63
2023-04-14T04:29:59.501Z,96001.28
2023-04-14T04:32:29.314Z,96002.13
2023-04-14T04:35:00.531Z,95998.19
2023-04-14T04:37:29.535Z,95994.75
2023-04-14T04:39:59.253Z,96000.44
2023-04-14T04:42:28.648Z,96005.03
2023-04-14T04:44:57.501Z,96007.56
2023-04-14T04:47:26.322Z,96022.94
2023-04-14T04:49:54.536Z,96015.97
2023-04-14T04:52:26.177Z,96021.03
2023-04-14T04:54:54.504Z,96023.06
2023-04-14T04:57:23.208Z,96009.19
2023-04-14T04:59:51.932Z,96023.59
2023-04-14T05:02:26.537Z,96020.97
2023-04-14T05:04:55.480Z,96030.19
2023-04-14T05:07:25.067Z,96039.16
2023-04-14T05:09:53.294Z,96035.34
2023-04-14T05:12:21.545Z,96033.66
2023-04-14T05:14:49.727Z,96039.41
2023-04-14T05:17:17.954Z,96047.06
2023-04-14T05:19:46.479Z,96029.88
2023-04-14T05:22:14.666Z,96032.31
2023-04-14T05:24:50.193Z,96042.47
2023-04-14T05:27:18.655Z,96056.63
2023-04-14T05:29:46.951Z,96046.88
2023-04-14T05:32:15.011Z,96050.81
2023-04-14T05:34:43.455Z,96060.00
2023-04-14T05:37:11.854Z,96055.91
2023-04-14T05:39:40.106Z,96045.41
2023-04-14T05:42:09.778Z,96036.53
2023-04-14T05:44:38.001Z,96042.16
2023-04-14T05:47:06.398Z,96040.13
2023-04-14T05:49:34.698Z,96041.13
2023-04-14T05:52:03.062Z,96043.44
2023-04-14T05:54:31.343Z,96064.81
2023-04-14T05:57:05.776Z,96069.97
2023-04-14T05:59:35.657Z,96063.88
2023-04-14T06:02:07.489Z,96058.53
2023-04-14T06:04:36.073Z,96052.44
2023-04-14T06:07:04.496Z,96044.38
2023-04-14T06:09:32.866Z,96043.19
2023-04-14T06:12:01.632Z,96034.94
2023-04-14T06:14:30.370Z,96040.03
2023-04-14T06:17:00.233Z,96056.44
2023-04-14T06:19:31.042Z,96053.78
2023-04-14T06:21:59.381Z,96067.66
2023-04-14T06:24:27.866Z,96054.09
2023-04-14T06:26:56.349Z,96066.16
2023-04-14T06:29:25.011Z,96060.00
2023-04-14T06:31:55.131Z,96080.09
2023-04-14T06:34:25.047Z,96069.63
2023-04-14T06:36:53.709Z,96055.34
2023-04-14T06:39:22.524Z,96053.59
2023-04-14T06:41:50.937Z,96048.94
2023-04-14T06:44:19.624Z,96041.03
2023-04-14T06:46:48.026Z,96030.63
2023-04-14T06:49:16.999Z,96023.09
2023-04-14T06:51:46.791Z,96012.56
2023-04-14T06:54:15.133Z,96011.88
2023-04-14T06:56:43.568Z,96022.94
2023-04-14T06:59:11.817Z,96010.59
2023-04-14T07:01:40.209Z,96032.69
2023-04-14T07:04:09.292Z,96031.88
2023-04-14T07:06:37.984Z,96011.88
2023-04-14T07:09:07.648Z,96037.84
2023-04-14T07:11:35.965Z,96026.34
2023-04-14T07:14:04.315Z,96031.84
2023-04-14T07:16:32.747Z,96027.41
2023-04-14T07:19:01.220Z,96022.38
2023-04-14T07:21:29.628Z,96029.31
2023-04-14T07:23:58.076Z,96023.19
2023-04-14T07:26:27.740Z,96007.00
2023-04-14T07:28:57.126Z,96002.19
2023-04-14T07:31:25.460Z,95995.06
2023-04-14T07:33:54.466Z,95999.81
2023-04-14T07:36:22.812Z,96014.38
2023-04-14T07:38:52.220Z,96008.72
2023-04-14T07:41:20.672Z,96014.44
2023-04-14T07:43:50.585Z,96010.75
2023-04-14T07:46:19.075Z,96023.03
2023-04-14T07:48:47.499Z,96015.16
2023-04-14T07:51:15.774Z,96016.94
2023-04-14T07:53:45.246Z,95998.88
2023-04-14T07:56:14.415Z,96000.66
2023-04-14T07:58:42.784Z,95996.06
2023-04-14T08:01:13.062Z,96005.50
2023-04-14T08:03:43.676Z,96030.31
2023-04-14T08:06:13.772Z,96027.88
2023-04-14T08:08:43.055Z,96037.69
2023-04-14T08:11:11.407Z,96046.41
2023-04-14T08:13:39.717Z,96054.91
2023-04-14T08:16:09.467Z,96061.53
2023-04-14T08:18:41.706Z,96060.91
2023-04-14T08:21:10.195Z,96067.00
2023-04-14T08:23:38.749Z,96070.31
2023-04-14T08:26:07.249Z,96068.97
2023-04-14T08:28:35.802Z,96075.00
2023-04-14T08:31:04.463Z,96063.19
2023-04-14T08:33:34.041Z,96063.88
2023-04-14T08:36:04.150Z,96055.75
2023-04-14T08:38:32.599Z,96054.47
2023-04-14T08:41:05.653Z,96060.56
2023-04-14T08:43:34.339Z,96047.22
2023-04-14T08:46:03.385Z,96047.97
2023-04-14T08:48:33.461Z,96048.91
2023-04-14T08:51:08.884Z,96041.34
2023-04-14T08:53:45.466Z,96049.00
2023-04-14T08:56:16.423Z,96052.34
2023-04-14T08:58:45.904Z,96061.84
2023-04-14T09:01:14.766Z,96065.81
2023-04-14T09:03:44.857Z,96056.47
2023-04-14T09:06:16.051Z,96071.50
2023-04-14T09:08:44.700Z,96062.25
2023-04-14T09:11:14.095Z,96062.03
2023-04-14T09:13:43.601Z,96053.00
2023-04-14T09:16:13.934Z,96055.41
2023-04-14T09:18:43.300Z,96067.63
2023-04-14T09:21:49.763Z,96071.72
2023-04-14T09:24:10.455Z,96067.72
2023-04-14T09:26:40.096Z,96067.72
2023-04-14T09:29:08.348Z,96071.91
2023-04-14T09:31:38.221Z,96070.00
2023-04-14T09:34:16.269Z,96090.66
2023-04-14T09:37:01.234Z,96105.72
2023-04-14T09:39:29.679Z,96090.81
2023-04-14T09:41:58.012Z,96101.91
2023-04-14T09:44:26.466Z,96101.09
2023-04-14T09:47:02.352Z,96103.75
2023-04-14T09:49:31.349Z,96114.25
2023-04-14T09:52:05.496Z,96105.41
2023-04-14T09:54:34.148Z,96116.50
2023-04-14T09:57:04.226Z,96112.06
2023-04-14T09:59:34.579Z,96106.84
2023-04-14T10:02:06.837Z,96115.09
2023-04-14T10:04:36.825Z,96100.34
2023-04-14T10:07:08.092Z,96102.19
2023-04-14T10:09:38.949Z,96100.28
2023-04-14T10:12:12.566Z,96128.81
2023-04-14T10:14:41.377Z,96118.78
2023-04-14T10:17:10.109Z,96127.94
2023-04-14T10:19:39.330Z,96123.53
2023-04-14T10:22:09.070Z,96126.69
2023-04-14T10:24:38.013Z,96120.22
2023-04-14T10:27:06.937Z,96143.38
2023-04-14T10:29:35.499Z,96143.81
2023-04-14T10:32:07.544Z,96135.91
2023-04-14T10:34:40.531Z,96141.03
2023-04-14T10:37:15.608Z,96154.03
2023-04-14T10:39:44.409Z,96152.97
2023-04-14T10:42:12.750Z,96146.28
2023-04-14T10:44:41.145Z,96147.97
2023-04-14T10:47:10.025Z,96150.84
2023-04-14T10:49:40.020Z,96133.03
2023-04-14T10:52:35.820Z,96130.88
2023-04-14T10:55:12.335Z,96143.75
2023-04-14T10:57:43.585Z,96139.97
2023-04-14T11:00:28.421Z,96137.13
2023-04-14T11:02:59.087Z,96134.78
2023-04-14T11:05:27.603Z,96126.88
2023-04-14T11:08:02.133Z,96129.91
2023-04-14T11:10:33.463Z,96132.47
2023-04-14T11:13:07.590Z,96137.13
2023-04-14T11:15:47.184Z,96131.59
2023-04-14T11:18:17.386Z,96132.34
2023-04-14T11:20:46.487Z,96138.28
2023-04-14T11:23:17.292Z,96133.94
2023-04-14T11:25:46.371Z,96134.31
2023-04-14T11:28:14.763Z,96130.81
2023-04-14T11:30:44.592Z,96132.19
2023-04-14T11:33:16.348Z,96127.41
2023-04-14T11:35:44.850Z,96133.72
2023-04-14T11:38:17.324Z,96133.78
2023-04-14T11:40:50.525Z,96131.59
2023-04-14T11:43:20.765Z,96128.47
2023-04-14T11:45:52.495Z,96134.09
2023-04-14T11:48:21.945Z,96135.81
2023-04-14T11:50:50.648Z,96128.97
2023-04-14T11:53:21.439Z,96139.88
2023-04-14T11:55:52.116Z,96127.31
2023-04-14T11:58:23.944Z,96141.91
2023-04-14T12:00:55.672Z,96133.91
2023-04-14T12:03:29.541Z,96133.47
2023-04-14T12:05:59.992Z,96131.09
2023-04-14T12:08:33.420Z,96122.47
2023-04-14T12:11:14.587Z,96127.63
2023-04-14T12:13:43.930Z,96131.13
2023-04-14T12:16:12.941Z,96123.91
2023-04-14T12:18:41.856Z,96129.56
2023-04-14T12:21:11.944Z,96121.03
2023-04-14T12:23:42.429Z,96121.53
2023-04-14T12:26:12.136Z,96104.97
2023-04-14T12:28:42.002Z,96124.41
2023-04-14T12:31:12.512Z,96126.31
2023-04-14T12:33:41.004Z,96117.91
2023-04-14T12:36:12.889Z,96125.00
2023-04-14T12:38:42.879Z,96126.31
2023-04-14T12:41:11.966Z,96123.16
2023-04-14T12:43:41.604Z,96124.84
2023-04-14T12:46:10.090Z,96119.22
2023-04-14T12:48:44.797Z,96119.59
2023-04-14T12:51:14.346Z,96121.66
2023-04-14T12:53:45.206Z,96111.16
2023-04-14T12:56:15.102Z,96108.75
2023-04-14T12:58:46.899Z,96105.16
2023-04-14T13:01:17.897Z,96107.69
2023-04-14T13:03:47.716Z,96101.34
2023-04-14T13:06:18.186Z,96106.59
2023-04-14T13:08:49.673Z,96093.63
2023-04-14T13:11:20.272Z,96100.56
2023-04-14T13:13:48.905Z,96099.16
2023-04-14T13:16:27.410Z,96113.19
2023-04-14T13:18:56.278Z,96106.38
2023-04-14T13:21:24.494Z,96108.66
2023-04-14T13:23:54.279Z,96112.38
2023-04-14T13:26:22.667Z,96105.53
2023-04-14T13:28:51.210Z,96104.47
2023-04-14T13:31:19.764Z,96117.66
2023-04-14T13:33:48.024Z,96112.63
2023-04-14T13:36:16.526Z,96117.44
2023-04-14T13:38:44.999Z,96110.84
2023-04-14T13:41:15.780Z,96096.31
2023-04-14T13:43:44.326Z,96112.38
2023-04-14T13:46:13.003Z,96102.91
2023-04-14T13:48:41.612Z,96115.75
2023-04-14T13:51:09.834Z,96111.91
2023-04-14T13:53:38.347Z,96109.28
2023-04-14T13:56:07.112Z,96111.78
2023-04-14T13:58:37.504Z,96110.94
2023-04-14T14:01:12.785Z,96109.50
2023-04-14T14:03:42.228Z,96109.28
2023-04-14T14:06:10.944Z,96115.50
2023-04-14T14:08:39.496Z,96103.72
2023-04-14T14:11:08.228Z,96110.81
2023-04-14T14:13:38.949Z,96106.38
2023-04-14T14:16:08.385Z,96115.50
2023-04-14T14:18:38.023Z,96113.59
2023-04-14T14:21:06.899Z,96111.66
2023-04-14T14:23:36.592Z,96120.63
2023-04-14T14:26:04.995Z,96109.25
2023-04-14T14:28:33.862Z,96120.50
2023-04-14T14:31:05.637Z,96099.34
2023-04-14T14:33:34.600Z,96108.31
2023-04-14T14:36:03.157Z,96105.59
2023-04-14T14:38:31.547Z,96101.28
2023-04-14T14:41:00.181Z,96098.75
2023-04-14T14:43:28.533Z,96101.13
2023-04-14T14:45:57.164Z,96098.50
2023-04-14T14:48:26.916Z,96109.31
2023-04-14T14:50:55.453Z,96112.53
2023-04-14T14:53:23.802Z,96114.53
2023-04-14T14:55:52.109Z,96111.31
2023-04-14T14:58:20.422Z,96101.16
2023-04-14T15:00:49.682Z,96109.75
2023-04-14T15:03:18.457Z,96112.66
2023-04-14T15:05:49.988Z,96110.88
2023-04-14T15:08:18.381Z,96111.44
2023-04-14T15:10:46.949Z,96108.34
2023-04-14T15:13:15.338Z,96117.09
2023-04-14T15:15:43.709Z,96113.72
2023-04-14T15:18:12.516Z,96122.72
2023-04-14T15:20:42.809Z,96108.53
2023-04-14T15:23:12.935Z,96109.25
2023-04-14T15:25:41.440Z,96114.53
2023-04-14T15:28:09.851Z,96113.78
2023-04-14T15:30:38.238Z,96105.88
2023-04-14T15:33:06.941Z,96115.03
2023-04-14T15:35:38.253Z,96109.84
2023-04-14T15:38:07.359Z,96126.78
2023-04-14T15:40:39.619Z,96121.41
2023-04-14T15:43:08.490Z,96129.44
2023-04-14T15:45:37.430Z,96117.66
2023-04-14T15:48:06.296Z,96122.16
2023-04-14T15:50:34.666Z,96118.56
2023-04-14T15:53:13.634Z,96122.38
2023-04-14T15:55:44.471Z,96118.00
2023-04-14T15:58:13.240Z,96124.22
2023-04-14T16:00:41.990Z,96118.47
2023-04-14T16:03:12.119Z,96118.56
2023-04-14T16:05:40.671Z,96130.94
2023-04-14T16:08:09.602Z,96125.38
2023-04-14T16:10:40.754Z,96129.44
2023-04-14T16:13:11.229Z,96125.38
2023-04-14T16:15:39.598Z,96124.78
2023-04-14T16:18:07.866Z,96138.06
2023-04-14T16:20:36.151Z,96145.03
2023-04-14T16:23:04.522Z,96142.59
2023-04-14T16:25:33.136Z,96141.88
2023-04-14T16:28:01.446Z,96140.94
2023-04-14T16:30:31.987Z,96137.00
2023-04-14T16:33:01.905Z,96132.44
2023-04-14T16:35:30.672Z,96135.19
2023-04-14T16:37:59.605Z,96124.41
2023-04-14T16:40:28.778Z,96129.13
2023-04-14T16:42:57.281Z,96143.22
2023-04-14T16:45:25.949Z,96131.84
2023-04-14T16:47:56.524Z,96140.69
2023-04-14T16:50:24.874Z,96136.88
2023-04-14T16:52:53.562Z,96142.16
2023-04-14T16:55:22.787Z,96135.00
2023-04-14T16:57:51.399Z,96143.84
2023-04-14T17:00:21.366Z,96144.06
2023-04-14T17:02:50.198Z,96145.56
2023-04-14T17:05:21.758Z,96135.66
2023-04-14T17:07:50.888Z,96136.94
2023-04-14T17:10:20.099Z,96148.63
2023-04-14T17:12:49.225Z,96155.69
2023-04-14T17:15:18.466Z,96151.69
2023-04-14T17:17:47.281Z,96144.34
2023-04-14T17:20:16.305Z,96146.41
2023-04-14T17:22:48.048Z,96160.84
2023-04-14T17:25:21.417Z,96158.63
2023-04-14T17:27:51.761Z,96154.88
2023-04-14T17:30:21.140Z,96159.28
2023-04-14T17:32:50.830Z,96160.84
2023-04-14T17:35:22.182Z,96163.47
2023-04-14T17:37:53.005Z,96158.00
2023-04-14T17:40:23.502Z,96154.88
2023-04-14T17:42:52.671Z,96155.72
2023-04-14T17:45:23.681Z,96148.75
2023-04-14T17:47:55.113Z,96147.06
2023-04-14T17:50:24.596Z,96157.69
2023-04-14T17:52:55.905Z,96150.13
2023-04-14T17:55:25.505Z,96153.38
2023-04-14T17:57:55.757Z,96163.06
2023-04-14T18:00:25.493Z,96148.75
2023-04-14T18:02:54.752Z,96157.06
2023-04-14T18:05:24.116Z,96155.59
2023-04-14T18:07:53.465Z,96158.22
2023-04-14T18:10:24.294Z,96153.16
2023-04-14T18:12:54.021Z,96161.56
2023-04-14T18:15:24.814Z,96161.38
2023-04-14T18:17:56.748Z,96159.69
2023-04-14T18:20:26.615Z,96157.16
2023-04-14T18:22:59.085Z,96156.13
2023-04-14T18:26:26.224Z,96160.34
2023-04-14T18:28:21.237Z,96155.19
2023-04-14T18:30:55.615Z,96155.06
2023-04-14T18:33:28.187Z,96158.84
2023-04-14T18:36:01.966Z,96157.50
2023-04-14T18:38:30.853Z,96165.38
2023-04-14T18:41:05.436Z,96155.28
2023-04-14T18:43:36.409Z,96160.31
2023-04-14T18:46:05.510Z,96166.66
2023-04-14T18:48:36.207Z,96164.88
2023-04-14T18:51:08.762Z,96151.81
2023-04-14T18:53:39.684Z,96158.53
2023-04-14T18:56:13.057Z,96153.41
2023-04-14T18:58:42.947Z,96156.13
2023-04-14T19:01:12.975Z,96155.06
2023-04-14T19:03:42.866Z,96154.34
2023-04-14T19:06:12.051Z,96160.03
2023-04-14T19:08:41.032Z,96155.47
2023-04-14T19:11:12.636Z,96152.84
2023-04-14T19:13:42.839Z,96139.50
2023-04-14T19:16:16.724Z,96158.84
2023-04-14T19:18:46.800Z,96139.50
2023-04-14T19:21:16.537Z,96150.63
2023-04-14T19:23:46.208Z,96144.00
2023-04-14T19:26:18.662Z,96136.13
2023-04-14T19:28:50.298Z,96134.53
2023-04-14T19:31:21.736Z,96137.28
2023-04-14T19:33:52.085Z,96141.59
2023-04-14T19:36:22.484Z,96131.28
2023-04-14T19:38:52.170Z,96134.66
2023-04-14T19:41:23.031Z,96135.69
2023-04-14T19:43:53.088Z,96140.03
2023-04-14T19:46:24.954Z,96136.88
2023-04-14T19:48:55.718Z,96132.97
2023-04-14T19:51:30.718Z,96133.06
2023-04-14T19:54:01.507Z,96133.16
2023-04-14T19:56:35.124Z,96126.97
2023-04-14T19:59:04.828Z,96132.22
2023-04-14T20:01:34.374Z,96134.84
2023-04-14T20:04:08.405Z,96127.16
2023-04-14T20:06:41.899Z,96120.84
2023-04-14T20:09:10.857Z,96133.59
2023-04-14T20:11:41.972Z,96125.69
2023-04-14T20:14:11.212Z,96119.59
2023-04-14T20:19:28.248Z,96124.94
2023-04-14T20:21:58.241Z,96130.22
2023-04-14T20:24:27.397Z,96120.84
2023-04-14T20:26:58.604Z,96125.38
2023-04-14T20:29:27.794Z,96117.59
2023-04-14T20:31:56.958Z,96112.56
2023-04-14T20:34:27.356Z,96115.28
2023-04-14T20:36:58.671Z,96113.69
2023-04-14T20:39:27.886Z,96118.09
2023-04-14T20:42:00.008Z,96120.72
2023-04-14T20:44:29.002Z,96124.84
2023-04-14T20:46:57.810Z,96131.06
2023-04-14T20:49:28.254Z,96115.47
2023-04-14T20:51:58.897Z,96124.75
2023-04-14T20:54:28.753Z,96120.13
2023-04-14T20:57:00.606Z,96110.00
2023-04-14T20:59:29.351Z,96109.16
2023-04-14T21:01:59.887Z,96126.22
2023-04-14T21:04:31.087Z,96129.78
2023-04-14T21:06:59.666Z,96127.91
2023-04-14T21:09:28.535Z,96121.06
2023-04-14T21:12:14.759Z,96135.06
2023-04-14T21:15:30.919Z,96135.91
2023-04-14T21:17:34.544Z,96136.13
2023-04-14T21:20:03.783Z,96141.91
2023-04-14T21:22:32.409Z,96138.31
2023-04-14T21:25:00.852Z,96146.41
2023-04-14T21:27:30.851Z,96138.00
2023-04-14T21:29:59.287Z,96153.16
2023-04-14T21:32:28.622Z,96144.94
2023-04-14T21:34:57.063Z,96143.47
2023-04-14T21:37:25.422Z,96150.81
2023-04-14T21:39:53.847Z,96149.38
2023-04-14T21:42:22.464Z,96149.47
2023-04-14T21:44:52.205Z,96133.06
2023-04-14T21:47:20.905Z,96153.16
2023-04-14T21:49:49.356Z,96159.38
2023-04-14T21:52:18.795Z,96146.00
2023-04-14T21:54:47.640Z,96156.09
2023-04-14T21:57:15.882Z,96139.47
2023-04-14T21:59:44.321Z,96145.47
2023-04-14T22:02:14.042Z,96141.56
2023-04-14T22:04:42.620Z,96149.13
2023-04-14T22:07:11.245Z,96146.09
2023-04-14T22:09:41.240Z,96137.97
2023-04-14T22:12:10.821Z,96141.25
2023-04-14T22:14:41.814Z,96149.88
2023-04-14T22:17:11.533Z,96144.41
2023-04-14T22:19:41.775Z,96144.06
2023-04-14T22:22:10.690Z,96135.47
2023-04-14T22:24:39.541Z,96135.88
2023-04-14T22:27:08.077Z,96142.50
2023-04-14T22:29:36.691Z,96140.72
2023-04-14T22:32:04.968Z,96150.81
2023-04-14T22:34:33.152Z,96144.41
2023-04-14T22:37:02.751Z,96137.97
2023-04-14T22:39:31.101Z,96141.75
2023-04-14T22:41:59.281Z,96147.78
2023-04-14T22:44:27.495Z,96155.03
2023-04-14T22:46:56.293Z,96147.88
2023-04-14T22:49:24.515Z,96142.09
2023-04-14T22:51:53.398Z,96151.34
2023-04-14T22:54:22.941Z,96141.56
2023-04-14T22:56:51.128Z,96148.94
2023-04-14T22:59:19.397Z,96150.59
2023-04-14T23:01:48.452Z,96151.00
2023-04-14T23:04:16.923Z,96149.31
2023-04-14T23:06:45.608Z,96147.09
2023-04-14T23:09:14.000Z,96152.69
2023-04-14T23:11:43.695Z,96136.81
2023-04-14T23:14:12.421Z,96143.63
2023-04-14T23:16:41.232Z,96143.88
2023-04-14T23:19:09.496Z,96149.31
2023-04-14T23:21:37.737Z,96152.19
2023-04-14T23:24:07.646Z,96147.44
2023-04-14T23:26:36.496Z,96155.13
2023-04-14T23:29:06.162Z,96150.06
2023-04-14T23:31:34.442Z,96147.25
2023-04-14T23:34:02.672Z,96149.97
2023-04-14T23:36:30.935Z,96152.69
2023-04-14T23:39:00.176Z,96153.44
2023-04-14T23:41:28.749Z,96146.50
2023-04-14T23:43:57.142Z,96140.72
2023-04-14T23:46:27.723Z,96140.72
2023-04-14T23:48:56.591Z,96139.03
2023-04-14T23:51:25.719Z,96140.50
2023-04-14T23:53:54.060Z,96135.22
2023-04-14T23:56:22.502Z,96134.81
2023-04-14T23:58:50.742Z,96139.31
